首页
METAR-TAF:

METAR-TAF

机场 :

法兰克福, 密歇根州, 美国

纬度: 44-37-30N, 经度: 086-12-02W, 海拔: 193米

当前天气观测

该预报发布于14分钟前的21:55 UTC
风速9节,风向西转西北,有时为14节阵风
温度 0°C
湿度 93%
气压 1003 hPa
能見度: 2.8公里
阴天层高于900英尺
未知

METAR: KFKS 142155Z AUTO 29009G14KT 1 3/4SM UP OVC009 00/M01 A2963 RMK AO2 T00001008

时间: 17:09 (22:09 UTC)


TAF: 丢失

超过4000个机场的气象观测和天气预报(METAR&TAF报告)。

可查询的气象台以黄色和红色小点在地图上表示。

将鼠标移到小点上方,可查看气象台名称。

然后点击查看天气观测和预报。

如需切换地图:点击带黑十字的绿色按钮放大地图;点击带横线的绿色按钮缩小地图;或者点击绿色箭头查看邻近地区的地图。


METAR-TAF: